sensor_id;sensor_type;location;lat;lon;timestamp;P1;durP1;ratioP1;P2;durP2;ratioP2
68300;SDS011;55146;47.468;18.806;2023-02-15T00:02:23;47.90;;;22.00;;
68300;SDS011;55146;47.468;18.806;2023-02-15T00:04:49;52.17;;;23.73;;
68300;SDS011;55146;47.468;18.806;2023-02-15T00:07:15;48.13;;;23.40;;
68300;SDS011;55146;47.468;18.806;2023-02-15T00:09:42;45.43;;;20.83;;
68300;SDS011;55146;47.468;18.806;2023-02-15T00:12:08;42.10;;;20.62;;
68300;SDS011;55146;47.468;18.806;2023-02-15T00:14:34;40.30;;;19.98;;
68300;SDS011;55146;47.468;18.806;2023-02-15T00:17:00;41.22;;;19.62;;
68300;SDS011;55146;47.468;18.806;2023-02-15T00:19:25;40.87;;;20.13;;
68300;SDS011;55146;47.468;18.806;2023-02-15T00:21:51;41.10;;;19.83;;
68300;SDS011;55146;47.468;18.806;2023-02-15T00:24:17;37.80;;;18.97;;
68300;SDS011;55146;47.468;18.806;2023-02-15T00:26:44;39.20;;;19.55;;
68300;SDS011;55146;47.468;18.806;2023-02-15T00:29:11;46.30;;;21.37;;
68300;SDS011;55146;47.468;18.806;2023-02-15T00:31:37;38.17;;;18.12;;
68300;SDS011;55146;47.468;18.806;2023-02-15T00:34:06;38.83;;;19.47;;
68300;SDS011;55146;47.468;18.806;2023-02-15T00:36:35;45.78;;;19.67;;
68300;SDS011;55146;47.468;18.806;2023-02-15T00:39:01;41.47;;;20.40;;
68300;SDS011;55146;47.468;18.806;2023-02-15T00:41:27;43.92;;;21.12;;
68300;SDS011;55146;47.468;18.806;2023-02-15T00:43:52;40.10;;;19.30;;
68300;SDS011;55146;47.468;18.806;2023-02-15T00:46:17;43.10;;;20.53;;
68300;SDS011;55146;47.468;18.806;2023-02-15T00:48:43;39.77;;;19.40;;
68300;SDS011;55146;47.468;18.806;2023-02-15T00:51:08;39.93;;;20.07;;
68300;SDS011;55146;47.468;18.806;2023-02-15T00:53:33;41.08;;;19.23;;
68300;SDS011;55146;47.468;18.806;2023-02-15T00:55:59;40.33;;;19.93;;
68300;SDS011;55146;47.468;18.806;2023-02-15T00:58:24;39.23;;;20.27;;
68300;SDS011;55146;47.468;18.806;2023-02-15T01:00:50;42.80;;;19.97;;
68300;SDS011;55146;47.468;18.806;2023-02-15T01:03:16;38.67;;;18.73;;
68300;SDS011;55146;47.468;18.806;2023-02-15T01:05:43;42.17;;;20.42;;
68300;SDS011;55146;47.468;18.806;2023-02-15T01:08:09;36.90;;;18.83;;
68300;SDS011;55146;47.468;18.806;2023-02-15T01:10:35;42.80;;;19.75;;
68300;SDS011;55146;47.468;18.806;2023-02-15T01:13:01;40.42;;;19.55;;
68300;SDS011;55146;47.468;18.806;2023-02-15T01:15:27;40.87;;;18.33;;
68300;SDS011;55146;47.468;18.806;2023-02-15T01:17:53;38.25;;;18.08;;
68300;SDS011;55146;47.468;18.806;2023-02-15T01:20:22;40.13;;;19.43;;
68300;SDS011;55146;47.468;18.806;2023-02-15T01:22:49;45.65;;;20.42;;
68300;SDS011;55146;47.468;18.806;2023-02-15T01:25:20;48.45;;;21.20;;
68300;SDS011;55146;47.468;18.806;2023-02-15T01:27:47;44.10;;;19.85;;
68300;SDS011;55146;47.468;18.806;2023-02-15T01:30:13;42.30;;;19.83;;
68300;SDS011;55146;47.468;18.806;2023-02-15T01:32:39;45.80;;;20.85;;
68300;SDS011;55146;47.468;18.806;2023-02-15T01:35:06;40.85;;;20.83;;
68300;SDS011;55146;47.468;18.806;2023-02-15T01:37:32;40.53;;;20.30;;
68300;SDS011;55146;47.468;18.806;2023-02-15T01:39:58;46.53;;;21.23;;
68300;SDS011;55146;47.468;18.806;2023-02-15T01:42:25;43.75;;;21.70;;
68300;SDS011;55146;47.468;18.806;2023-02-15T01:44:53;41.17;;;20.75;;
68300;SDS011;55146;47.468;18.806;2023-02-15T01:47:33;43.15;;;21.42;;
68300;SDS011;55146;47.468;18.806;2023-02-15T01:50:13;45.75;;;22.00;;
68300;SDS011;55146;47.468;18.806;2023-02-15T01:52:41;40.20;;;19.73;;
68300;SDS011;55146;47.468;18.806;2023-02-15T01:55:15;44.60;;;21.98;;
68300;SDS011;55146;47.468;18.806;2023-02-15T01:57:40;46.53;;;22.17;;
68300;SDS011;55146;47.468;18.806;2023-02-15T02:00:08;44.35;;;21.58;;
68300;SDS011;55146;47.468;18.806;2023-02-15T02:02:34;42.90;;;20.73;;
68300;SDS011;55146;47.468;18.806;2023-02-15T02:05:01;44.63;;;19.05;;
68300;SDS011;55146;47.468;18.806;2023-02-15T02:07:31;42.62;;;20.23;;
68300;SDS011;55146;47.468;18.806;2023-02-15T02:10:02;43.08;;;19.75;;
68300;SDS011;55146;47.468;18.806;2023-02-15T02:12:28;45.20;;;21.37;;
68300;SDS011;55146;47.468;18.806;2023-02-15T02:14:54;42.23;;;20.00;;
68300;SDS011;55146;47.468;18.806;2023-02-15T02:17:34;38.55;;;17.40;;
68300;SDS011;55146;47.468;18.806;2023-02-15T02:36:24;37.60;;;18.02;;
68300;SDS011;55146;47.468;18.806;2023-02-15T02:45:05;40.12;;;17.42;;
68300;SDS011;55146;47.468;18.806;2023-02-15T02:47:36;34.97;;;18.30;;
68300;SDS011;55146;47.468;18.806;2023-02-15T02:50:11;38.05;;;18.73;;
68300;SDS011;55146;47.468;18.806;2023-02-15T02:52:47;39.15;;;17.60;;
68300;SDS011;55146;47.468;18.806;2023-02-15T02:55:25;41.42;;;17.50;;
68300;SDS011;55146;47.468;18.806;2023-02-15T03:00:46;41.70;;;16.95;;
68300;SDS011;55146;47.468;18.806;2023-02-15T03:03:13;37.47;;;18.87;;
68300;SDS011;55146;47.468;18.806;2023-02-15T03:05:48;36.42;;;18.12;;
68300;SDS011;55146;47.468;18.806;2023-02-15T03:08:18;35.63;;;17.37;;
68300;SDS011;55146;47.468;18.806;2023-02-15T03:10:48;35.20;;;16.70;;
68300;SDS011;55146;47.468;18.806;2023-02-15T03:13:18;36.22;;;19.12;;
68300;SDS011;55146;47.468;18.806;2023-02-15T03:15:44;36.22;;;17.58;;
68300;SDS011;55146;47.468;18.806;2023-02-15T03:18:35;38.13;;;17.75;;
68300;SDS011;55146;47.468;18.806;2023-02-15T03:21:07;40.55;;;18.75;;
68300;SDS011;55146;47.468;18.806;2023-02-15T03:23:34;35.45;;;17.12;;
68300;SDS011;55146;47.468;18.806;2023-02-15T03:26:03;36.33;;;16.92;;
68300;SDS011;55146;47.468;18.806;2023-02-15T03:28:42;37.50;;;19.05;;
68300;SDS011;55146;47.468;18.806;2023-02-15T03:31:09;40.95;;;18.77;;
68300;SDS011;55146;47.468;18.806;2023-02-15T03:33:38;41.40;;;17.60;;
68300;SDS011;55146;47.468;18.806;2023-02-15T03:36:24;41.67;;;18.55;;
68300;SDS011;55146;47.468;18.806;2023-02-15T03:39:10;39.38;;;17.55;;
68300;SDS011;55146;47.468;18.806;2023-02-15T03:41:50;38.13;;;18.10;;
68300;SDS011;55146;47.468;18.806;2023-02-15T03:44:29;39.87;;;17.63;;
68300;SDS011;55146;47.468;18.806;2023-02-15T03:47:02;37.05;;;18.25;;
68300;SDS011;55146;47.468;18.806;2023-02-15T03:52:04;40.22;;;19.00;;
68300;SDS011;55146;47.468;18.806;2023-02-15T03:54:33;56.95;;;23.00;;
68300;SDS011;55146;47.468;18.806;2023-02-15T03:57:15;44.60;;;19.13;;
68300;SDS011;55146;47.468;18.806;2023-02-15T03:59:59;37.38;;;18.58;;
68300;SDS011;55146;47.468;18.806;2023-02-15T04:05:25;36.13;;;18.62;;
68300;SDS011;55146;47.468;18.806;2023-02-15T04:07:51;39.10;;;17.83;;
68300;SDS011;55146;47.468;18.806;2023-02-15T04:10:16;40.90;;;18.83;;
68300;SDS011;55146;47.468;18.806;2023-02-15T04:13:01;42.38;;;17.75;;
68300;SDS011;55146;47.468;18.806;2023-02-15T04:15:26;38.50;;;17.17;;
68300;SDS011;55146;47.468;18.806;2023-02-15T04:18:10;38.15;;;16.85;;
68300;SDS011;55146;47.468;18.806;2023-02-15T04:20:35;34.80;;;16.13;;
68300;SDS011;55146;47.468;18.806;2023-02-15T04:23:20;35.40;;;16.50;;
68300;SDS011;55146;47.468;18.806;2023-02-15T04:26:04;40.12;;;17.65;;
68300;SDS011;55146;47.468;18.806;2023-02-15T04:28:30;37.17;;;17.53;;
68300;SDS011;55146;47.468;18.806;2023-02-15T04:30:55;44.40;;;16.97;;
68300;SDS011;55146;47.468;18.806;2023-02-15T04:33:20;40.17;;;16.23;;
68300;SDS011;55146;47.468;18.806;2023-02-15T04:35:46;37.10;;;16.40;;
68300;SDS011;55146;47.468;18.806;2023-02-15T04:38:11;38.40;;;17.47;;
68300;SDS011;55146;47.468;18.806;2023-02-15T04:40:37;39.37;;;17.63;;
68300;SDS011;55146;47.468;18.806;2023-02-15T04:43:02;39.53;;;17.87;;
68300;SDS011;55146;47.468;18.806;2023-02-15T04:45:27;39.85;;;17.85;;
68300;SDS011;55146;47.468;18.806;2023-02-15T04:47:53;41.45;;;19.05;;
68300;SDS011;55146;47.468;18.806;2023-02-15T04:50:18;39.07;;;17.13;;
68300;SDS011;55146;47.468;18.806;2023-02-15T04:52:44;38.37;;;17.10;;
68300;SDS011;55146;47.468;18.806;2023-02-15T04:55:09;34.80;;;18.33;;
68300;SDS011;55146;47.468;18.806;2023-02-15T04:57:35;40.60;;;18.48;;
68300;SDS011;55146;47.468;18.806;2023-02-15T05:00:00;35.90;;;17.17;;
68300;SDS011;55146;47.468;18.806;2023-02-15T05:02:25;37.40;;;16.40;;
68300;SDS011;55146;47.468;18.806;2023-02-15T05:04:51;35.10;;;16.93;;
68300;SDS011;55146;47.468;18.806;2023-02-15T05:07:16;39.75;;;18.00;;
68300;SDS011;55146;47.468;18.806;2023-02-15T05:09:42;36.05;;;16.83;;
68300;SDS011;55146;47.468;18.806;2023-02-15T05:12:07;43.77;;;18.13;;
68300;SDS011;55146;47.468;18.806;2023-02-15T05:14:33;36.03;;;16.85;;
68300;SDS011;55146;47.468;18.806;2023-02-15T05:16:58;38.23;;;16.07;;
68300;SDS011;55146;47.468;18.806;2023-02-15T05:19:26;41.63;;;19.45;;
68300;SDS011;55146;47.468;18.806;2023-02-15T05:21:52;35.87;;;15.17;;
68300;SDS011;55146;47.468;18.806;2023-02-15T05:24:17;35.13;;;16.53;;
68300;SDS011;55146;47.468;18.806;2023-02-15T05:27:01;39.47;;;16.98;;
68300;SDS011;55146;47.468;18.806;2023-02-15T05:29:45;39.55;;;15.50;;
68300;SDS011;55146;47.468;18.806;2023-02-15T05:32:12;41.47;;;16.90;;
68300;SDS011;55146;47.468;18.806;2023-02-15T05:34:38;41.03;;;19.17;;
68300;SDS011;55146;47.468;18.806;2023-02-15T05:37:03;39.37;;;17.33;;
68300;SDS011;55146;47.468;18.806;2023-02-15T05:39:28;36.63;;;16.97;;
68300;SDS011;55146;47.468;18.806;2023-02-15T05:41:54;39.30;;;18.93;;
68300;SDS011;55146;47.468;18.806;2023-02-15T05:44:19;35.43;;;16.67;;
68300;SDS011;55146;47.468;18.806;2023-02-15T05:46:45;33.20;;;17.30;;
68300;SDS011;55146;47.468;18.806;2023-02-15T05:49:10;35.35;;;17.45;;
68300;SDS011;55146;47.468;18.806;2023-02-15T05:51:35;39.80;;;19.50;;
68300;SDS011;55146;47.468;18.806;2023-02-15T05:54:01;39.50;;;16.10;;
68300;SDS011;55146;47.468;18.806;2023-02-15T05:56:26;35.53;;;17.07;;
68300;SDS011;55146;47.468;18.806;2023-02-15T05:58:52;38.70;;;18.02;;
68300;SDS011;55146;47.468;18.806;2023-02-15T06:01:18;36.85;;;17.23;;
68300;SDS011;55146;47.468;18.806;2023-02-15T06:03:46;33.60;;;16.75;;
68300;SDS011;55146;47.468;18.806;2023-02-15T06:06:11;35.37;;;16.93;;
68300;SDS011;55146;47.468;18.806;2023-02-15T06:08:37;39.60;;;17.07;;
68300;SDS011;55146;47.468;18.806;2023-02-15T06:11:02;36.35;;;16.20;;
68300;SDS011;55146;47.468;18.806;2023-02-15T06:13:28;38.08;;;17.70;;
68300;SDS011;55146;47.468;18.806;2023-02-15T06:15:55;35.57;;;17.10;;
68300;SDS011;55146;47.468;18.806;2023-02-15T06:18:20;46.35;;;17.95;;
68300;SDS011;55146;47.468;18.806;2023-02-15T06:20:46;41.03;;;17.53;;
68300;SDS011;55146;47.468;18.806;2023-02-15T06:23:12;35.65;;;16.35;;
68300;SDS011;55146;47.468;18.806;2023-02-15T06:25:37;43.55;;;20.67;;
68300;SDS011;55146;47.468;18.806;2023-02-15T06:28:03;37.00;;;18.57;;
68300;SDS011;55146;47.468;18.806;2023-02-15T06:30:28;37.13;;;18.33;;
68300;SDS011;55146;47.468;18.806;2023-02-15T06:32:53;41.43;;;19.13;;
68300;SDS011;55146;47.468;18.806;2023-02-15T06:35:19;39.58;;;18.60;;
68300;SDS011;55146;47.468;18.806;2023-02-15T06:37:45;35.60;;;17.55;;
68300;SDS011;55146;47.468;18.806;2023-02-15T06:40:11;38.28;;;17.77;;
68300;SDS011;55146;47.468;18.806;2023-02-15T06:42:37;40.23;;;18.50;;
68300;SDS011;55146;47.468;18.806;2023-02-15T06:45:02;39.30;;;18.97;;
68300;SDS011;55146;47.468;18.806;2023-02-15T06:47:28;35.40;;;18.20;;
68300;SDS011;55146;47.468;18.806;2023-02-15T06:49:54;38.93;;;18.37;;
68300;SDS011;55146;47.468;18.806;2023-02-15T06:52:19;41.47;;;17.67;;
68300;SDS011;55146;47.468;18.806;2023-02-15T06:54:45;37.05;;;18.17;;
68300;SDS011;55146;47.468;18.806;2023-02-15T06:57:10;32.70;;;16.73;;
68300;SDS011;55146;47.468;18.806;2023-02-15T06:59:35;38.37;;;18.57;;
68300;SDS011;55146;47.468;18.806;2023-02-15T07:02:01;39.13;;;18.13;;
68300;SDS011;55146;47.468;18.806;2023-02-15T07:04:26;35.60;;;16.47;;
68300;SDS011;55146;47.468;18.806;2023-02-15T07:06:54;37.30;;;18.17;;
68300;SDS011;55146;47.468;18.806;2023-02-15T07:09:20;40.10;;;20.85;;
68300;SDS011;55146;47.468;18.806;2023-02-15T07:11:45;41.43;;;19.33;;
68300;SDS011;55146;47.468;18.806;2023-02-15T07:14:29;45.60;;;23.02;;
68300;SDS011;55146;47.468;18.806;2023-02-15T07:16:55;63.33;;;30.90;;
68300;SDS011;55146;47.468;18.806;2023-02-15T07:19:20;46.53;;;24.25;;
68300;SDS011;55146;47.468;18.806;2023-02-15T07:21:45;50.90;;;27.50;;
68300;SDS011;55146;47.468;18.806;2023-02-15T07:24:11;36.40;;;19.47;;
68300;SDS011;55146;47.468;18.806;2023-02-15T07:26:36;37.90;;;19.07;;
68300;SDS011;55146;47.468;18.806;2023-02-15T07:29:01;35.43;;;17.63;;
68300;SDS011;55146;47.468;18.806;2023-02-15T07:31:27;47.40;;;26.25;;
68300;SDS011;55146;47.468;18.806;2023-02-15T07:33:53;35.47;;;17.50;;
68300;SDS011;55146;47.468;18.806;2023-02-15T07:36:18;37.90;;;19.70;;
68300;SDS011;55146;47.468;18.806;2023-02-15T07:38:43;40.03;;;18.87;;
68300;SDS011;55146;47.468;18.806;2023-02-15T07:41:10;45.53;;;23.17;;
68300;SDS011;55146;47.468;18.806;2023-02-15T07:43:38;35.13;;;18.75;;
68300;SDS011;55146;47.468;18.806;2023-02-15T07:46:06;40.70;;;21.35;;
68300;SDS011;55146;47.468;18.806;2023-02-15T07:48:34;38.83;;;19.40;;
68300;SDS011;55146;47.468;18.806;2023-02-15T07:51:04;37.28;;;19.15;;
68300;SDS011;55146;47.468;18.806;2023-02-15T07:53:32;36.03;;;19.00;;
68300;SDS011;55146;47.468;18.806;2023-02-15T07:56:02;38.95;;;21.45;;
68300;SDS011;55146;47.468;18.806;2023-02-15T07:58:29;43.70;;;23.33;;
68300;SDS011;55146;47.468;18.806;2023-02-15T08:01:13;30.67;;;16.73;;
68300;SDS011;55146;47.468;18.806;2023-02-15T08:03:39;35.90;;;17.33;;
68300;SDS011;55146;47.468;18.806;2023-02-15T08:06:05;33.67;;;18.37;;
68300;SDS011;55146;47.468;18.806;2023-02-15T08:08:30;34.97;;;19.27;;
68300;SDS011;55146;47.468;18.806;2023-02-15T08:13:48;40.30;;;19.80;;
68300;SDS011;55146;47.468;18.806;2023-02-15T08:16:25;37.67;;;18.30;;
68300;SDS011;55146;47.468;18.806;2023-02-15T08:18:53;38.17;;;20.50;;
68300;SDS011;55146;47.468;18.806;2023-02-15T08:21:19;39.35;;;20.52;;
68300;SDS011;55146;47.468;18.806;2023-02-15T08:23:46;47.35;;;24.50;;
68300;SDS011;55146;47.468;18.806;2023-02-15T08:26:12;40.90;;;22.70;;
68300;SDS011;55146;47.468;18.806;2023-02-15T08:28:38;45.33;;;24.57;;
68300;SDS011;55146;47.468;18.806;2023-02-15T08:31:04;37.25;;;21.12;;
68300;SDS011;55146;47.468;18.806;2023-02-15T08:33:30;43.50;;;23.37;;
68300;SDS011;55146;47.468;18.806;2023-02-15T08:35:56;37.33;;;21.93;;
68300;SDS011;55146;47.468;18.806;2023-02-15T08:38:21;40.13;;;21.03;;
68300;SDS011;55146;47.468;18.806;2023-02-15T08:40:46;40.77;;;22.00;;
68300;SDS011;55146;47.468;18.806;2023-02-15T08:43:11;39.57;;;22.43;;
68300;SDS011;55146;47.468;18.806;2023-02-15T08:45:37;45.60;;;23.23;;
68300;SDS011;55146;47.468;18.806;2023-02-15T08:48:02;40.50;;;22.87;;
68300;SDS011;55146;47.468;18.806;2023-02-15T08:50:28;40.73;;;21.53;;
68300;SDS011;55146;47.468;18.806;2023-02-15T08:52:53;39.72;;;21.35;;
68300;SDS011;55146;47.468;18.806;2023-02-15T08:55:18;42.47;;;22.43;;
68300;SDS011;55146;47.468;18.806;2023-02-15T08:57:44;41.03;;;23.40;;
68300;SDS011;55146;47.468;18.806;2023-02-15T09:00:10;46.83;;;24.73;;
68300;SDS011;55146;47.468;18.806;2023-02-15T09:02:36;43.83;;;24.23;;
68300;SDS011;55146;47.468;18.806;2023-02-15T09:05:02;47.13;;;23.98;;
68300;SDS011;55146;47.468;18.806;2023-02-15T09:07:27;41.00;;;24.03;;
68300;SDS011;55146;47.468;18.806;2023-02-15T09:09:53;44.70;;;24.03;;
68300;SDS011;55146;47.468;18.806;2023-02-15T09:12:19;43.08;;;23.52;;
68300;SDS011;55146;47.468;18.806;2023-02-15T09:14:44;46.07;;;25.20;;
68300;SDS011;55146;47.468;18.806;2023-02-15T09:17:09;48.73;;;24.77;;
68300;SDS011;55146;47.468;18.806;2023-02-15T09:19:35;45.77;;;23.03;;
68300;SDS011;55146;47.468;18.806;2023-02-15T09:22:00;45.78;;;24.00;;
68300;SDS011;55146;47.468;18.806;2023-02-15T09:24:26;42.63;;;22.23;;
68300;SDS011;55146;47.468;18.806;2023-02-15T09:26:51;42.27;;;22.37;;
68300;SDS011;55146;47.468;18.806;2023-02-15T09:29:17;38.83;;;21.73;;
68300;SDS011;55146;47.468;18.806;2023-02-15T09:31:44;37.92;;;21.52;;
68300;SDS011;55146;47.468;18.806;2023-02-15T09:34:12;41.30;;;21.05;;
68300;SDS011;55146;47.468;18.806;2023-02-15T09:36:39;38.28;;;18.98;;
68300;SDS011;55146;47.468;18.806;2023-02-15T09:41:41;32.75;;;18.92;;
68300;SDS011;55146;47.468;18.806;2023-02-15T09:50:19;34.33;;;18.95;;
68300;SDS011;55146;47.468;18.806;2023-02-15T09:58:45;37.40;;;20.27;;
68300;SDS011;55146;47.468;18.806;2023-02-15T10:12:57;32.78;;;20.12;;
68300;SDS011;55146;47.468;18.806;2023-02-15T10:21:04;38.27;;;20.30;;
68300;SDS011;55146;47.468;18.806;2023-02-15T10:26:36;34.47;;;20.20;;
68300;SDS011;55146;47.468;18.806;2023-02-15T10:29:30;33.05;;;18.33;;
68300;SDS011;55146;47.468;18.806;2023-02-15T10:32:21;36.10;;;20.05;;
68300;SDS011;55146;47.468;18.806;2023-02-15T10:34:52;38.60;;;23.10;;
68300;SDS011;55146;47.468;18.806;2023-02-15T10:51:05;27.00;;;16.15;;
68300;SDS011;55146;47.468;18.806;2023-02-15T10:53:47;30.60;;;17.70;;
68300;SDS011;55146;47.468;18.806;2023-02-15T11:04:22;27.55;;;16.33;;
68300;SDS011;55146;47.468;18.806;2023-02-15T11:07:14;29.25;;;16.20;;
68300;SDS011;55146;47.468;18.806;2023-02-15T11:09:54;29.05;;;16.80;;
68300;SDS011;55146;47.468;18.806;2023-02-15T11:12:26;29.40;;;17.17;;
68300;SDS011;55146;47.468;18.806;2023-02-15T11:17:42;28.33;;;17.20;;
68300;SDS011;55146;47.468;18.806;2023-02-15T11:20:18;29.67;;;17.37;;
68300;SDS011;55146;47.468;18.806;2023-02-15T11:23:00;30.30;;;16.30;;
68300;SDS011;55146;47.468;18.806;2023-02-15T11:25:31;31.15;;;17.37;;
68300;SDS011;55146;47.468;18.806;2023-02-15T11:27:58;29.80;;;17.23;;
68300;SDS011;55146;47.468;18.806;2023-02-15T11:30:39;29.15;;;16.90;;
68300;SDS011;55146;47.468;18.806;2023-02-15T11:36:08;29.75;;;16.62;;
68300;SDS011;55146;47.468;18.806;2023-02-15T11:39:00;30.65;;;18.52;;
68300;SDS011;55146;47.468;18.806;2023-02-15T11:41:32;30.53;;;18.23;;
68300;SDS011;55146;47.468;18.806;2023-02-15T11:46:33;31.15;;;15.63;;
68300;SDS011;55146;47.468;18.806;2023-02-15T11:48:59;29.77;;;16.87;;
68300;SDS011;55146;47.468;18.806;2023-02-15T11:51:24;29.55;;;16.73;;
68300;SDS011;55146;47.468;18.806;2023-02-15T11:53:52;27.73;;;16.50;;
68300;SDS011;55146;47.468;18.806;2023-02-15T11:56:20;31.12;;;17.05;;
68300;SDS011;55146;47.468;18.806;2023-02-15T11:58:50;29.00;;;16.83;;
68300;SDS011;55146;47.468;18.806;2023-02-15T12:04:01;30.27;;;15.50;;
68300;SDS011;55146;47.468;18.806;2023-02-15T12:06:34;28.42;;;15.55;;
68300;SDS011;55146;47.468;18.806;2023-02-15T12:09:09;26.62;;;16.70;;
68300;SDS011;55146;47.468;18.806;2023-02-15T12:11:39;28.67;;;17.02;;
68300;SDS011;55146;47.468;18.806;2023-02-15T12:14:09;27.05;;;16.52;;
68300;SDS011;55146;47.468;18.806;2023-02-15T12:16:41;27.10;;;16.07;;
68300;SDS011;55146;47.468;18.806;2023-02-15T12:19:13;29.27;;;15.45;;
68300;SDS011;55146;47.468;18.806;2023-02-15T12:21:46;28.75;;;16.92;;
68300;SDS011;55146;47.468;18.806;2023-02-15T12:24:34;27.50;;;15.90;;
68300;SDS011;55146;47.468;18.806;2023-02-15T12:27:10;29.73;;;16.90;;
68300;SDS011;55146;47.468;18.806;2023-02-15T12:29:41;26.63;;;15.37;;
68300;SDS011;55146;47.468;18.806;2023-02-15T12:32:50;26.80;;;15.63;;
68300;SDS011;55146;47.468;18.806;2023-02-15T12:35:31;28.98;;;16.30;;
68300;SDS011;55146;47.468;18.806;2023-02-15T12:38:03;29.42;;;17.02;;
68300;SDS011;55146;47.468;18.806;2023-02-15T12:40:49;26.20;;;16.48;;
68300;SDS011;55146;47.468;18.806;2023-02-15T12:43:26;25.33;;;15.33;;
68300;SDS011;55146;47.468;18.806;2023-02-15T12:49:22;31.15;;;16.77;;
68300;SDS011;55146;47.468;18.806;2023-02-15T12:51:45;26.65;;;15.45;;
68300;SDS011;55146;47.468;18.806;2023-02-15T12:56:47;26.50;;;15.80;;
68300;SDS011;55146;47.468;18.806;2023-02-15T12:59:13;30.08;;;16.27;;
68300;SDS011;55146;47.468;18.806;2023-02-15T13:01:40;24.65;;;14.95;;
68300;SDS011;55146;47.468;18.806;2023-02-15T13:04:15;27.43;;;15.47;;
68300;SDS011;55146;47.468;18.806;2023-02-15T13:06:48;27.77;;;16.70;;
68300;SDS011;55146;47.468;18.806;2023-02-15T13:09:20;27.75;;;15.07;;
68300;SDS011;55146;47.468;18.806;2023-02-15T13:11:56;28.98;;;15.85;;
68300;SDS011;55146;47.468;18.806;2023-02-15T13:14:33;24.15;;;14.98;;
68300;SDS011;55146;47.468;18.806;2023-02-15T13:17:01;28.83;;;14.53;;
68300;SDS011;55146;47.468;18.806;2023-02-15T13:22:04;26.98;;;15.07;;
68300;SDS011;55146;47.468;18.806;2023-02-15T13:24:34;26.77;;;14.77;;
68300;SDS011;55146;47.468;18.806;2023-02-15T13:27:03;26.17;;;14.95;;
68300;SDS011;55146;47.468;18.806;2023-02-15T13:29:31;26.10;;;14.60;;
68300;SDS011;55146;47.468;18.806;2023-02-15T13:32:06;27.30;;;15.13;;
68300;SDS011;55146;47.468;18.806;2023-02-15T13:34:54;27.60;;;16.08;;
68300;SDS011;55146;47.468;18.806;2023-02-15T13:43:05;28.90;;;15.50;;
68300;SDS011;55146;47.468;18.806;2023-02-15T13:48:54;31.17;;;17.62;;
68300;SDS011;55146;47.468;18.806;2023-02-15T13:51:36;30.05;;;16.02;;
68300;SDS011;55146;47.468;18.806;2023-02-15T14:06:03;33.65;;;17.52;;
68300;SDS011;55146;47.468;18.806;2023-02-15T14:11:27;33.07;;;17.63;;
68300;SDS011;55146;47.468;18.806;2023-02-15T14:19:39;31.87;;;17.42;;
68300;SDS011;55146;47.468;18.806;2023-02-15T14:22:25;31.05;;;16.87;;
68300;SDS011;55146;47.468;18.806;2023-02-15T14:30:23;35.50;;;18.02;;
68300;SDS011;55146;47.468;18.806;2023-02-15T14:32:57;35.80;;;18.40;;
68300;SDS011;55146;47.468;18.806;2023-02-15T14:35:39;36.53;;;19.42;;
68300;SDS011;55146;47.468;18.806;2023-02-15T14:40:53;39.45;;;19.55;;
68300;SDS011;55146;47.468;18.806;2023-02-15T14:46:31;34.58;;;17.83;;
68300;SDS011;55146;47.468;18.806;2023-02-15T14:49:21;36.92;;;18.30;;
68300;SDS011;55146;47.468;18.806;2023-02-15T14:56:41;34.07;;;16.93;;
68300;SDS011;55146;47.468;18.806;2023-02-15T14:59:17;36.00;;;17.73;;
68300;SDS011;55146;47.468;18.806;2023-02-15T15:01:55;30.50;;;16.40;;
68300;SDS011;55146;47.468;18.806;2023-02-15T15:04:24;37.00;;;18.87;;
68300;SDS011;55146;47.468;18.806;2023-02-15T15:06:59;34.47;;;18.77;;
68300;SDS011;55146;47.468;18.806;2023-02-15T15:09:42;37.38;;;18.50;;
68300;SDS011;55146;47.468;18.806;2023-02-15T15:14:46;32.90;;;17.73;;
68300;SDS011;55146;47.468;18.806;2023-02-15T15:17:58;33.83;;;16.95;;
68300;SDS011;55146;47.468;18.806;2023-02-15T15:22:24;37.58;;;19.62;;
68300;SDS011;55146;47.468;18.806;2023-02-15T15:24:53;35.35;;;18.95;;
68300;SDS011;55146;47.468;18.806;2023-02-15T15:49:24;32.72;;;17.52;;
68300;SDS011;55146;47.468;18.806;2023-02-15T15:51:56;30.95;;;17.98;;
68300;SDS011;55146;47.468;18.806;2023-02-15T15:54:25;34.83;;;18.87;;
68300;SDS011;55146;47.468;18.806;2023-02-15T15:56:59;31.80;;;17.90;;
68300;SDS011;55146;47.468;18.806;2023-02-15T15:59:29;35.40;;;20.37;;
68300;SDS011;55146;47.468;18.806;2023-02-15T16:02:07;33.10;;;18.52;;
68300;SDS011;55146;47.468;18.806;2023-02-15T16:04:36;35.58;;;18.17;;
68300;SDS011;55146;47.468;18.806;2023-02-15T16:07:23;34.87;;;19.03;;
68300;SDS011;55146;47.468;18.806;2023-02-15T16:09:55;36.80;;;19.23;;
68300;SDS011;55146;47.468;18.806;2023-02-15T16:12:30;38.33;;;19.00;;
68300;SDS011;55146;47.468;18.806;2023-02-15T16:15:00;37.25;;;18.87;;
68300;SDS011;55146;47.468;18.806;2023-02-15T16:17:31;36.10;;;20.17;;
68300;SDS011;55146;47.468;18.806;2023-02-15T16:20:01;42.75;;;20.75;;
68300;SDS011;55146;47.468;18.806;2023-02-15T16:22:49;41.20;;;21.27;;
68300;SDS011;55146;47.468;18.806;2023-02-15T16:28:11;47.67;;;23.58;;
68300;SDS011;55146;47.468;18.806;2023-02-15T16:30:39;52.20;;;26.52;;
68300;SDS011;55146;47.468;18.806;2023-02-15T16:33:10;50.10;;;24.25;;
68300;SDS011;55146;47.468;18.806;2023-02-15T16:35:48;62.08;;;31.20;;
68300;SDS011;55146;47.468;18.806;2023-02-15T16:40:59;67.70;;;36.15;;
68300;SDS011;55146;47.468;18.806;2023-02-15T16:43:26;75.32;;;39.38;;
68300;SDS011;55146;47.468;18.806;2023-02-15T16:46:03;76.40;;;38.08;;
68300;SDS011;55146;47.468;18.806;2023-02-15T16:48:31;62.50;;;33.55;;
68300;SDS011;55146;47.468;18.806;2023-02-15T16:50:58;58.17;;;32.80;;
68300;SDS011;55146;47.468;18.806;2023-02-15T16:53:26;60.25;;;33.22;;
68300;SDS011;55146;47.468;18.806;2023-02-15T16:55:54;57.13;;;31.73;;
68300;SDS011;55146;47.468;18.806;2023-02-15T16:58:26;51.67;;;28.02;;
68300;SDS011;55146;47.468;18.806;2023-02-15T17:01:06;51.83;;;27.23;;
68300;SDS011;55146;47.468;18.806;2023-02-15T17:03:35;51.23;;;26.23;;
68300;SDS011;55146;47.468;18.806;2023-02-15T17:06:01;49.35;;;26.58;;
68300;SDS011;55146;47.468;18.806;2023-02-15T17:08:32;52.22;;;26.52;;
68300;SDS011;55146;47.468;18.806;2023-02-15T17:13:23;57.53;;;30.47;;
68300;SDS011;55146;47.468;18.806;2023-02-15T17:18:44;60.95;;;29.77;;
68300;SDS011;55146;47.468;18.806;2023-02-15T17:21:12;59.00;;;29.80;;
68300;SDS011;55146;47.468;18.806;2023-02-15T17:23:44;50.30;;;29.10;;
68300;SDS011;55146;47.468;18.806;2023-02-15T17:26:12;56.28;;;29.15;;
68300;SDS011;55146;47.468;18.806;2023-02-15T17:28:44;50.05;;;28.23;;
68300;SDS011;55146;47.468;18.806;2023-02-15T17:31:16;50.33;;;26.90;;
68300;SDS011;55146;47.468;18.806;2023-02-15T17:33:45;50.05;;;28.25;;
68300;SDS011;55146;47.468;18.806;2023-02-15T17:36:12;54.23;;;28.37;;
68300;SDS011;55146;47.468;18.806;2023-02-15T17:41:43;47.65;;;27.15;;